Terminal Aerodrome Forecast
Issued by NWS

Home | Current Version | Previous Version | Text Only | Print | Product List | Glossary On
Versions: 1 2 3 4 5 6 7 8 9 10 11 12 13 14 15 16 17 18 19 20 21 22
000
FTUS43 KDVN 200532
TAFCID
TAF
KCID 200532Z 2006/2106 14007KT P6SM BKN200
     FM200900 14008KT 5SM BR SCT070
     FM201300 15011KT 5SM BR OVC020
     FM201600 16014G21KT 6SM BR VCSH OVC012
     FM202100 18010KT 5SM -SHRA VCTS OVC015CB
     FM210100 24007KT 4SM BR BKN025=

USA.gov is the U.S. government's official web portal to all federal, state and local government web resources and services.